createdAt,value
2023-02-15T00:00:11.773Z,22.00
2023-02-15T00:02:39.756Z,23.67
2023-02-15T00:05:08.073Z,22.00
2023-02-15T00:07:35.064Z,21.37
2023-02-15T00:10:02.134Z,23.30
2023-02-15T00:12:29.046Z,24.50
2023-02-15T00:14:56.000Z,21.70
2023-02-15T00:17:22.888Z,23.77
2023-02-15T00:19:49.786Z,21.30
2023-02-15T00:22:16.821Z,19.57
2023-02-15T00:24:43.739Z,22.60
2023-02-15T00:27:10.914Z,22.57
2023-02-15T00:29:37.902Z,20.30
2023-02-15T00:32:04.956Z,20.67
2023-02-15T00:34:31.997Z,24.40
2023-02-15T00:36:59.025Z,21.70
2023-02-15T00:39:26.685Z,22.80
2023-02-15T00:41:53.772Z,22.80
2023-02-15T00:44:20.760Z,21.30
2023-02-15T00:46:47.771Z,21.50
2023-02-15T00:49:14.714Z,21.37
2023-02-15T00:51:43.002Z,22.03
2023-02-15T00:54:10.033Z,21.90
2023-02-15T00:56:37.061Z,21.40
2023-02-15T00:59:04.190Z,21.07
2023-02-15T01:01:31.247Z,24.13
2023-02-15T01:03:58.295Z,24.10
2023-02-15T01:06:25.227Z,22.40
2023-02-15T01:08:52.162Z,23.37
2023-02-15T01:11:23.726Z,22.10
2023-02-15T01:13:58.970Z,23.83
2023-02-15T01:16:29.676Z,24.93
2023-02-15T01:18:57.077Z,21.63
2023-02-15T01:21:26.770Z,21.07
2023-02-15T01:23:54.569Z,21.97
2023-02-15T01:26:21.674Z,20.33
2023-02-15T01:28:48.682Z,19.20
2023-02-15T01:31:20.363Z,20.93
2023-02-15T01:33:48.995Z,20.77
2023-02-15T01:36:18.489Z,19.67
2023-02-15T01:38:45.595Z,18.50
2023-02-15T01:41:24.134Z,20.17
2023-02-15T01:44:01.538Z,20.47
2023-02-15T01:46:53.377Z,18.83
2023-02-15T01:49:26.359Z,18.50
2023-02-15T01:51:54.074Z,19.90
2023-02-15T01:54:33.471Z,20.20
2023-02-15T01:57:07.066Z,21.43
2023-02-15T01:59:37.433Z,23.10
2023-02-15T02:02:06.866Z,22.67
2023-02-15T02:04:45.039Z,20.67
2023-02-15T02:07:16.051Z,21.17
2023-02-15T02:09:43.308Z,22.50
2023-02-15T02:12:11.196Z,20.73
2023-02-15T02:14:40.012Z,21.60
2023-02-15T02:17:22.140Z,20.50
2023-02-15T02:20:35.579Z,21.80
2023-02-15T02:23:27.220Z,20.47
2023-02-15T02:26:24.614Z,20.53
2023-02-15T02:29:33.285Z,19.70
2023-02-15T02:32:53.430Z,20.50
2023-02-15T02:35:39.045Z,17.90
2023-02-15T02:38:28.767Z,19.63
2023-02-15T02:41:26.876Z,20.07
2023-02-15T02:44:12.155Z,21.60
2023-02-15T02:47:00.766Z,21.67
2023-02-15T02:49:37.129Z,18.30
2023-02-15T02:52:26.305Z,18.40
2023-02-15T02:54:55.572Z,20.87
2023-02-15T02:57:25.445Z,20.33
2023-02-15T02:59:55.195Z,18.47
2023-02-15T03:02:29.610Z,18.80
2023-02-15T03:05:04.926Z,19.03
2023-02-15T03:07:37.044Z,19.47
2023-02-15T03:10:07.612Z,20.93
2023-02-15T03:12:40.981Z,18.23
2023-02-15T03:15:53.320Z,19.70
2023-02-15T03:18:27.065Z,20.87
2023-02-15T03:20:54.322Z,17.87
2023-02-15T03:23:25.302Z,22.13
2023-02-15T03:26:02.171Z,16.77
2023-02-15T03:28:42.116Z,20.13
2023-02-15T03:31:13.561Z,20.13
2023-02-15T03:33:55.045Z,17.60
2023-02-15T03:36:32.803Z,17.53
2023-02-15T03:39:13.521Z,17.50
2023-02-15T03:42:29.356Z,17.10
2023-02-15T03:45:01.622Z,18.90
2023-02-15T03:47:52.321Z,19.60
2023-02-15T03:50:47.310Z,18.13
2023-02-15T03:53:22.082Z,19.07
2023-02-15T03:55:56.240Z,17.70
2023-02-15T03:58:41.600Z,18.10
2023-02-15T04:01:44.823Z,19.10
2023-02-15T04:04:20.956Z,17.50
2023-02-15T04:06:47.995Z,18.30
2023-02-15T04:09:33.631Z,17.10
2023-02-15T04:12:00.636Z,18.37
2023-02-15T04:14:45.990Z,18.10
2023-02-15T04:17:13.061Z,17.30
2023-02-15T04:19:58.769Z,18.80
2023-02-15T04:22:44.645Z,19.30
2023-02-15T04:25:14.765Z,21.40
2023-02-15T04:27:45.760Z,19.43
2023-02-15T04:30:14.954Z,20.17
2023-02-15T04:32:42.451Z,19.00
2023-02-15T04:35:10.627Z,19.00
2023-02-15T04:37:37.689Z,20.27
2023-02-15T04:40:06.920Z,16.53
2023-02-15T04:42:33.977Z,18.00
2023-02-15T04:45:00.878Z,18.30
2023-02-15T04:47:28.266Z,17.20
2023-02-15T04:49:57.315Z,17.40
2023-02-15T04:52:25.278Z,16.07
2023-02-15T04:54:52.229Z,19.47
2023-02-15T04:57:19.204Z,17.80
2023-02-15T04:59:46.139Z,21.97
2023-02-15T05:02:13.271Z,19.37
2023-02-15T05:04:40.210Z,19.40
2023-02-15T05:07:07.194Z,19.37
2023-02-15T05:09:34.125Z,18.73
2023-02-15T05:12:01.196Z,19.77
2023-02-15T05:14:28.492Z,19.90
2023-02-15T05:16:55.562Z,18.20
2023-02-15T05:19:24.332Z,20.30
2023-02-15T05:21:51.360Z,19.40
2023-02-15T05:24:38.543Z,20.37
2023-02-15T05:27:24.862Z,18.50
2023-02-15T05:29:52.067Z,18.03
2023-02-15T05:32:19.255Z,18.47
2023-02-15T05:34:46.479Z,21.80
2023-02-15T05:37:13.447Z,20.87
2023-02-15T05:39:40.480Z,18.70
2023-02-15T05:42:07.381Z,19.27
2023-02-15T05:44:34.360Z,20.50
2023-02-15T05:47:01.383Z,20.27
2023-02-15T05:49:28.344Z,18.93
2023-02-15T05:51:55.190Z,19.80
2023-02-15T05:54:22.206Z,21.93
2023-02-15T05:56:49.133Z,20.27
2023-02-15T05:59:16.237Z,19.37
2023-02-15T06:01:43.152Z,18.57
2023-02-15T06:04:10.622Z,19.27
2023-02-15T06:06:37.534Z,20.80
2023-02-15T06:09:04.552Z,17.80
2023-02-15T06:11:31.687Z,20.50
2023-02-15T06:13:58.631Z,22.17
2023-02-15T06:16:25.598Z,19.97
2023-02-15T06:18:53.758Z,22.70
2023-02-15T06:21:20.813Z,20.47
2023-02-15T06:23:47.849Z,20.80
2023-02-15T06:26:14.872Z,21.00
2023-02-15T06:28:42.259Z,20.37
2023-02-15T06:31:09.567Z,20.40
2023-02-15T06:33:36.812Z,19.40
2023-02-15T06:36:05.140Z,20.83
2023-02-15T06:38:32.594Z,19.67
2023-02-15T06:40:59.586Z,21.40
2023-02-15T06:43:26.570Z,19.70
2023-02-15T06:45:53.601Z,20.33
2023-02-15T06:48:20.476Z,20.17
2023-02-15T06:50:47.492Z,22.63
2023-02-15T06:53:14.381Z,19.97
2023-02-15T06:55:41.442Z,19.70
2023-02-15T06:58:08.600Z,21.23
2023-02-15T07:00:35.528Z,21.53
2023-02-15T07:03:03.541Z,21.97
2023-02-15T07:05:34.579Z,20.77
2023-02-15T07:08:02.241Z,21.60
2023-02-15T07:10:29.948Z,20.93
2023-02-15T07:12:57.204Z,22.47
2023-02-15T07:15:24.240Z,20.70
2023-02-15T07:17:52.046Z,24.17
2023-02-15T07:20:24.289Z,20.00
2023-02-15T07:22:52.105Z,20.87
2023-02-15T07:25:19.683Z,20.10
2023-02-15T07:27:47.104Z,20.90
2023-02-15T07:30:18.253Z,19.20
2023-02-15T07:33:05.696Z,20.40
2023-02-15T07:36:30.868Z,19.80
2023-02-15T07:38:57.823Z,17.97
2023-02-15T07:41:24.728Z,19.70
2023-02-15T07:43:51.636Z,20.70
2023-02-15T07:46:19.021Z,22.13
2023-02-15T07:48:46.543Z,21.20
2023-02-15T07:51:15.575Z,19.40
2023-02-15T07:53:43.262Z,21.10
2023-02-15T07:56:15.635Z,20.13
2023-02-15T07:58:52.426Z,21.90
2023-02-15T08:01:36.421Z,19.43
2023-02-15T08:04:06.789Z,18.17
2023-02-15T08:06:37.538Z,19.87
2023-02-15T08:09:07.579Z,19.37
2023-02-15T08:11:37.767Z,19.97
2023-02-15T08:14:19.853Z,18.07
2023-02-15T08:16:58.324Z,18.87
2023-02-15T08:19:31.463Z,18.50
2023-02-15T08:22:07.606Z,19.03
2023-02-15T08:24:40.944Z,19.07
2023-02-15T08:27:11.287Z,16.37
2023-02-15T08:29:40.481Z,16.80
2023-02-15T08:32:11.090Z,16.97
2023-02-15T08:34:41.958Z,16.80
2023-02-15T08:37:08.993Z,18.30
2023-02-15T08:39:36.126Z,16.03
2023-02-15T08:42:03.768Z,17.30
2023-02-15T08:44:30.908Z,20.57
2023-02-15T08:47:03.827Z,20.20
2023-02-15T08:49:31.203Z,17.40
2023-02-15T08:51:58.117Z,18.97
2023-02-15T08:54:25.254Z,16.63
2023-02-15T08:56:52.483Z,15.93
2023-02-15T08:59:23.169Z,17.40
2023-02-15T09:01:52.950Z,17.50
2023-02-15T09:04:22.044Z,16.60
2023-02-15T09:06:51.239Z,15.10
2023-02-15T09:09:19.751Z,18.63
2023-02-15T09:11:53.438Z,14.50
2023-02-15T09:14:24.705Z,14.77
2023-02-15T09:16:54.335Z,14.40
2023-02-15T09:19:23.728Z,14.70
2023-02-15T09:21:51.394Z,13.53
2023-02-15T09:24:19.687Z,16.10
2023-02-15T09:26:49.581Z,14.90
2023-02-15T09:29:19.197Z,14.97
2023-02-15T09:31:50.041Z,15.90
2023-02-15T09:34:21.638Z,15.60
2023-02-15T09:36:49.638Z,15.20
2023-02-15T09:39:24.932Z,14.33
2023-02-15T09:42:34.037Z,15.50
2023-02-15T09:45:27.451Z,14.67
2023-02-15T09:48:15.532Z,14.57
2023-02-15T09:50:58.143Z,15.40
2023-02-15T09:53:54.476Z,16.47
2023-02-15T09:56:38.586Z,14.43
2023-02-15T09:59:40.132Z,16.47
2023-02-15T10:03:00.766Z,13.23
2023-02-15T10:05:45.926Z,16.40
2023-02-15T10:08:32.230Z,18.47
2023-02-15T10:11:40.452Z,17.27
2023-02-15T10:14:19.465Z,15.73
2023-02-15T10:17:21.609Z,16.63
2023-02-15T10:19:59.100Z,15.23
2023-02-15T10:22:41.104Z,14.27
2023-02-15T10:25:35.215Z,15.50
2023-02-15T10:28:21.961Z,16.50
2023-02-15T10:31:01.902Z,15.83
2023-02-15T10:33:31.888Z,13.47
2023-02-15T10:36:47.780Z,17.93
2023-02-15T10:40:00.507Z,16.43
2023-02-15T10:42:40.783Z,17.47
2023-02-15T10:45:40.883Z,14.97
2023-02-15T10:48:26.363Z,13.50
2023-02-15T10:51:01.464Z,16.03
2023-02-15T10:53:53.418Z,13.70
2023-02-15T10:56:52.744Z,17.17
2023-02-15T10:59:34.484Z,15.47
2023-02-15T11:02:23.251Z,14.80
2023-02-15T11:05:00.676Z,17.20
2023-02-15T11:07:42.903Z,15.00
2023-02-15T11:10:42.694Z,14.00
2023-02-15T11:13:20.734Z,14.77
2023-02-15T11:16:04.269Z,15.83
2023-02-15T11:18:43.272Z,14.97
2023-02-15T11:21:33.762Z,16.63
2023-02-15T11:24:02.542Z,14.77
2023-02-15T11:26:44.228Z,16.00
2023-02-15T11:29:37.467Z,16.47
2023-02-15T11:32:32.732Z,16.33
2023-02-15T11:35:11.809Z,16.33
2023-02-15T11:37:42.912Z,16.60
2023-02-15T11:40:20.511Z,17.13
2023-02-15T11:42:53.205Z,14.33
2023-02-15T11:45:25.135Z,15.97
2023-02-15T11:47:52.330Z,18.23
2023-02-15T11:50:42.633Z,16.60
2023-02-15T11:53:28.835Z,15.37
2023-02-15T11:55:56.845Z,15.73
2023-02-15T11:58:46.983Z,17.60
2023-02-15T12:01:33.468Z,16.37
2023-02-15T12:04:28.478Z,17.00
2023-02-15T12:07:19.097Z,16.80
2023-02-15T12:10:05.468Z,17.70
2023-02-15T12:12:37.454Z,15.80
2023-02-15T12:15:11.866Z,16.57
2023-02-15T12:17:42.973Z,17.80
2023-02-15T12:20:15.763Z,17.97
2023-02-15T12:22:53.153Z,17.10
2023-02-15T12:25:54.650Z,17.70
2023-02-15T12:28:40.664Z,18.23
2023-02-15T12:31:28.538Z,17.43
2023-02-15T12:33:59.360Z,17.53
2023-02-15T12:36:45.752Z,16.87
2023-02-15T12:39:28.492Z,16.67
2023-02-15T12:41:55.279Z,18.50
2023-02-15T12:44:29.932Z,17.90
2023-02-15T12:47:04.070Z,18.50
2023-02-15T12:49:35.150Z,17.00
2023-02-15T12:52:21.543Z,18.00
2023-02-15T12:54:49.926Z,17.23
2023-02-15T12:57:32.512Z,17.97
2023-02-15T13:00:07.229Z,18.03
2023-02-15T13:02:48.037Z,18.47
2023-02-15T13:05:21.055Z,19.07
2023-02-15T13:07:54.590Z,18.97
2023-02-15T13:10:38.549Z,20.87
2023-02-15T13:13:16.297Z,16.70
2023-02-15T13:15:48.337Z,18.73
2023-02-15T13:18:44.981Z,20.20
2023-02-15T13:21:16.998Z,17.83
2023-02-15T13:23:49.645Z,19.70
2023-02-15T13:26:21.956Z,18.53
2023-02-15T13:28:55.801Z,21.37
2023-02-15T13:31:28.938Z,20.47
2023-02-15T13:34:35.657Z,17.67
2023-02-15T13:37:18.595Z,18.57
2023-02-15T13:40:11.862Z,18.00
2023-02-15T13:42:48.187Z,20.10
2023-02-15T13:46:08.290Z,17.63
2023-02-15T13:49:04.715Z,19.70
2023-02-15T13:51:34.508Z,21.43
2023-02-15T13:54:49.018Z,18.10
2023-02-15T13:58:02.740Z,19.90
2023-02-15T14:00:58.762Z,20.87
2023-02-15T14:03:57.559Z,20.47
2023-02-15T14:06:41.767Z,17.33
2023-02-15T14:09:47.295Z,18.33
2023-02-15T14:13:27.163Z,18.07
2023-02-15T14:16:18.577Z,16.43
2023-02-15T14:19:01.306Z,16.37
2023-02-15T14:22:00.418Z,17.40
2023-02-15T14:24:54.699Z,17.10
2023-02-15T14:27:58.361Z,17.60
2023-02-15T14:30:33.574Z,17.70
2023-02-15T14:33:16.867Z,20.00
2023-02-15T14:35:45.313Z,20.23
2023-02-15T14:38:16.839Z,20.50
2023-02-15T14:41:08.213Z,18.07
2023-02-15T14:44:08.737Z,20.27
2023-02-15T14:46:40.508Z,18.80
2023-02-15T14:49:29.027Z,25.40
2023-02-15T14:52:00.172Z,25.97
2023-02-15T14:54:27.206Z,19.60
2023-02-15T14:57:03.081Z,20.07
2023-02-15T14:59:59.484Z,21.13
2023-02-15T15:02:32.510Z,17.93
2023-02-15T15:05:31.174Z,22.37
2023-02-15T15:08:01.235Z,23.40
2023-02-15T15:10:42.645Z,24.83
2023-02-15T15:13:40.544Z,23.10
2023-02-15T15:16:38.488Z,19.10
2023-02-15T15:19:12.931Z,19.60
2023-02-15T15:21:51.880Z,20.50
2023-02-15T15:24:40.604Z,19.60
2023-02-15T15:27:49.059Z,20.80
2023-02-15T15:30:16.018Z,22.70
2023-02-15T15:32:55.097Z,23.53
2023-02-15T15:35:46.327Z,23.17
2023-02-15T15:38:48.997Z,24.63
2023-02-15T15:41:19.436Z,22.47
2023-02-15T15:44:04.087Z,24.67
2023-02-15T15:46:42.931Z,21.40
2023-02-15T15:49:16.590Z,23.63
2023-02-15T15:51:46.389Z,21.77
2023-02-15T15:54:21.409Z,24.00
2023-02-15T15:57:04.019Z,22.30
2023-02-15T15:59:35.108Z,22.00
2023-02-15T16:02:08.270Z,21.47
2023-02-15T16:04:36.752Z,27.47
2023-02-15T16:07:18.731Z,36.27
2023-02-15T16:10:07.230Z,25.70
2023-02-15T16:12:40.515Z,34.30
2023-02-15T16:15:51.129Z,26.40
2023-02-15T16:18:21.688Z,24.43
2023-02-15T16:20:58.870Z,22.80
2023-02-15T16:23:39.371Z,29.67
2023-02-15T16:27:10.418Z,22.50
2023-02-15T16:29:37.408Z,23.77
2023-02-15T16:32:26.805Z,25.17
2023-02-15T16:35:03.557Z,24.00
2023-02-15T16:37:36.074Z,26.13
2023-02-15T16:40:03.289Z,23.70
2023-02-15T16:42:30.706Z,22.10
2023-02-15T16:45:18.664Z,23.60
2023-02-15T16:47:51.869Z,26.60
2023-02-15T16:50:37.706Z,22.00
2023-02-15T16:53:08.473Z,24.83
2023-02-15T16:55:43.298Z,23.33
2023-02-15T16:58:17.665Z,24.07
2023-02-15T17:00:45.835Z,25.53
2023-02-15T17:03:15.946Z,24.07
2023-02-15T17:05:50.980Z,23.13
2023-02-15T17:08:56.087Z,23.37
2023-02-15T17:11:38.827Z,23.70
2023-02-15T17:14:06.821Z,23.63
2023-02-15T17:16:35.137Z,23.90
2023-02-15T17:19:09.293Z,25.43
2023-02-15T17:21:47.536Z,22.80
2023-02-15T17:24:58.645Z,22.70
2023-02-15T17:27:30.249Z,25.40
2023-02-15T17:30:14.483Z,25.33
2023-02-15T17:33:02.283Z,27.07
2023-02-15T17:35:32.196Z,25.90
2023-02-15T17:38:19.787Z,27.97
2023-02-15T17:40:46.844Z,29.07
2023-02-15T17:43:13.784Z,24.97
2023-02-15T17:45:48.494Z,23.77
2023-02-15T17:48:42.593Z,25.23
2023-02-15T17:51:14.598Z,25.93
2023-02-15T17:54:02.268Z,26.40
2023-02-15T17:56:29.781Z,26.87
2023-02-15T17:58:56.685Z,26.40
2023-02-15T18:01:42.567Z,26.70
2023-02-15T18:04:32.291Z,26.47
2023-02-15T18:07:18.657Z,25.33
2023-02-15T18:10:04.409Z,24.57
2023-02-15T18:12:35.034Z,25.77
2023-02-15T18:15:02.827Z,26.17
2023-02-15T18:17:47.299Z,24.03
2023-02-15T18:20:20.914Z,22.90
2023-02-15T18:22:48.271Z,22.97
2023-02-15T18:25:19.497Z,27.30
2023-02-15T18:27:46.975Z,27.53
2023-02-15T18:30:22.024Z,31.80
2023-02-15T18:32:53.064Z,22.30
2023-02-15T18:35:23.728Z,23.03
2023-02-15T18:37:52.855Z,25.20
2023-02-15T18:40:23.602Z,23.70
2023-02-15T18:42:51.611Z,22.10
2023-02-15T18:45:33.372Z,24.30
2023-02-15T18:48:00.552Z,23.77
2023-02-15T18:50:33.813Z,26.83
2023-02-15T18:53:04.304Z,24.17
2023-02-15T18:55:35.751Z,25.63
2023-02-15T18:58:03.009Z,25.63
2023-02-15T19:00:33.759Z,24.70
2023-02-15T19:03:02.485Z,24.73
2023-02-15T19:05:32.705Z,25.73
2023-02-15T19:08:02.432Z,28.47
2023-02-15T19:10:32.503Z,25.90
2023-02-15T19:12:59.524Z,27.67
2023-02-15T19:15:30.627Z,27.90
2023-02-15T19:17:58.014Z,25.17
2023-02-15T19:20:30.557Z,25.53
2023-02-15T19:23:00.893Z,24.50
2023-02-15T19:25:31.746Z,23.20
2023-02-15T19:27:59.637Z,24.33
2023-02-15T19:30:30.397Z,27.33
2023-02-15T19:32:59.008Z,23.03
2023-02-15T19:35:31.320Z,26.30
2023-02-15T19:38:02.731Z,25.47
2023-02-15T19:40:32.793Z,24.13
2023-02-15T19:43:00.172Z,27.50
2023-02-15T19:45:30.675Z,27.27
2023-02-15T19:48:00.875Z,27.07
2023-02-15T19:50:32.047Z,26.70
2023-02-15T19:53:01.222Z,29.37
2023-02-15T19:55:30.436Z,25.47
2023-02-15T19:57:59.589Z,27.53
2023-02-15T20:00:34.469Z,25.53
2023-02-15T20:03:03.442Z,25.97
2023-02-15T20:05:38.635Z,25.80
2023-02-15T20:08:10.052Z,25.53
2023-02-15T20:10:38.195Z,26.47
2023-02-15T20:13:05.070Z,26.17
2023-02-15T20:15:35.263Z,26.90
2023-02-15T20:18:04.439Z,28.33
2023-02-15T20:20:46.290Z,25.40
2023-02-15T20:23:32.617Z,26.30
2023-02-15T20:26:03.727Z,28.50
2023-02-15T20:28:33.495Z,28.10
2023-02-15T20:31:00.716Z,29.10
2023-02-15T20:33:27.862Z,29.93
2023-02-15T20:35:55.231Z,28.63
2023-02-15T20:38:28.286Z,31.03
2023-02-15T20:41:16.327Z,30.97
2023-02-15T20:43:43.562Z,29.27
2023-02-15T20:46:10.639Z,28.20
2023-02-15T20:48:37.915Z,26.27
2023-02-15T20:51:06.417Z,29.13
2023-02-15T20:53:34.138Z,27.63
2023-02-15T20:56:02.624Z,25.73
2023-02-15T20:58:30.779Z,27.37
2023-02-15T21:00:59.602Z,27.57
2023-02-15T21:03:31.190Z,30.13
2023-02-15T21:05:59.612Z,29.90
2023-02-15T21:08:27.477Z,25.13
2023-02-15T21:10:54.815Z,27.00
2023-02-15T21:13:35.691Z,28.57
2023-02-15T21:16:03.212Z,27.20
2023-02-15T21:18:33.672Z,29.40
2023-02-15T21:21:05.142Z,26.50
2023-02-15T21:23:39.485Z,27.57
2023-02-15T21:26:16.373Z,26.37
2023-02-15T21:28:45.553Z,27.43
2023-02-15T21:31:22.531Z,26.53
2023-02-15T21:33:49.791Z,25.97
2023-02-15T21:36:23.095Z,25.70
2023-02-15T21:38:50.988Z,24.67
2023-02-15T21:41:40.422Z,30.17
2023-02-15T21:44:42.630Z,27.00
2023-02-15T21:47:44.264Z,25.20
2023-02-15T21:50:37.263Z,26.80
2023-02-15T21:53:05.852Z,23.70
2023-02-15T21:55:33.423Z,27.60
2023-02-15T21:58:01.180Z,26.60
2023-02-15T22:00:30.555Z,26.93
2023-02-15T22:03:01.140Z,24.73
2023-02-15T22:05:33.676Z,26.23
2023-02-15T22:08:01.165Z,25.63
2023-02-15T22:10:32.440Z,27.90
2023-02-15T22:13:03.841Z,26.50
2023-02-15T22:15:38.159Z,25.97
2023-02-15T22:18:06.443Z,22.87
2023-02-15T22:20:33.560Z,24.10
2023-02-15T22:23:00.510Z,25.43
2023-02-15T22:25:27.696Z,24.67
2023-02-15T22:27:55.400Z,25.10
2023-02-15T22:30:33.471Z,24.60
2023-02-15T22:33:01.228Z,25.90
2023-02-15T22:35:32.328Z,24.00
2023-02-15T22:37:59.774Z,26.63
2023-02-15T22:40:31.880Z,25.50
2023-02-15T22:43:02.133Z,25.20
2023-02-15T22:45:29.588Z,24.90
2023-02-15T22:48:00.025Z,24.97
2023-02-15T22:50:32.098Z,24.40
2023-02-15T22:53:03.834Z,27.90
2023-02-15T22:55:35.919Z,26.70
2023-02-15T22:58:03.629Z,26.53
2023-02-15T23:00:39.390Z,26.80
2023-02-15T23:03:33.640Z,28.17
2023-02-15T23:06:00.753Z,26.20
2023-02-15T23:08:27.785Z,27.70
2023-02-15T23:10:57.027Z,27.77
2023-02-15T23:13:30.471Z,27.00
2023-02-15T23:16:04.635Z,24.40
2023-02-15T23:18:43.140Z,26.77
2023-02-15T23:21:18.977Z,24.90
2023-02-15T23:23:52.546Z,25.63
2023-02-15T23:26:24.974Z,23.90
2023-02-15T23:28:53.646Z,27.33
2023-02-15T23:31:29.866Z,27.57
2023-02-15T23:33:57.476Z,24.60
2023-02-15T23:36:30.719Z,25.73
2023-02-15T23:39:30.564Z,25.27
2023-02-15T23:42:00.205Z,25.30
2023-02-15T23:44:27.364Z,27.40
2023-02-15T23:46:56.718Z,25.60
2023-02-15T23:49:24.252Z,24.77
2023-02-15T23:51:54.740Z,24.40
2023-02-15T23:54:25.236Z,23.70
2023-02-15T23:57:00.854Z,26.00
2023-02-15T23:59:31.050Z,23.40
